Time;durP1;ratioP1;P1;durP2;ratioP2;P2;SDS_P1;SDS_P2;PMS_P1;PMS_P2;Temp;Humidity;BMP_temperature;BMP_pressure;BME280_temperature;BME280_humidity;BME280_pressure;Samples;Min_cycle;Max_cycle;Signal;HPM_P1;HPM_P2
2021/05/03 00:00:00;;;;;;;3.28;1.98;;;;;;;6.22;62.13;101009.44;5050858;28;20375;-71
2021/05/03 00:02:26;;;;;;;2.70;1.90;;;;;;;6.12;64.20;101008.41;5038893;28;20054;-71
2021/05/03 00:04:51;;;;;;;3.10;1.85;;;;;;;6.01;63.01;101018.88;5046528;28;20135;-71
2021/05/03 00:07:17;;;;;;;2.67;1.70;;;;;;;5.97;65.16;101017.41;5042896;28;20044;-71
2021/05/03 00:09:42;;;;;;;3.17;1.90;;;;;;;5.86;64.45;101010.25;5043138;28;20029;-71
2021/05/03 00:12:08;;;;;;;3.00;1.90;;;;;;;5.72;64.75;101014.72;5042143;28;20033;-72
2021/05/03 00:14:34;;;;;;;2.78;1.88;;;;;;;5.63;65.59;101015.34;5031205;28;20033;-71
2021/05/03 00:16:59;;;;;;;2.30;1.80;;;;;;;5.53;66.51;101019.56;5039191;28;20486;-71
2021/05/03 00:19:25;;;;;;;2.80;1.90;;;;;;;5.41;65.66;101017.78;5044449;28;20044;-71
2021/05/03 00:21:50;;;;;;;3.20;1.90;;;;;;;5.39;67.63;101017.06;5037719;28;20045;-71
2021/05/03 00:24:15;;;;;;;2.58;1.80;;;;;;;5.38;68.05;101012.75;5046837;28;20048;-72
2021/05/03 00:26:41;;;;;;;2.80;2.05;;;;;;;5.30;68.56;101022.00;5037369;28;20037;-72
2021/05/03 00:29:07;;;;;;;4.15;2.20;;;;;;;5.23;69.33;101028.59;5048719;28;20029;-72
2021/05/03 00:31:32;;;;;;;5.10;2.33;;;;;;;5.14;67.36;101021.34;5044055;28;20028;-72
2021/05/03 00:33:58;;;;;;;4.00;2.40;;;;;;;5.04;67.60;101026.38;5047283;28;20497;-72
2021/05/03 00:36:23;;;;;;;3.17;2.20;;;;;;;4.97;70.43;101019.88;5040805;28;20045;-72
2021/05/03 00:38:48;;;;;;;4.00;2.22;;;;;;;4.99;69.54;101018.00;5045276;28;20059;-72
2021/05/03 00:41:14;;;;;;;3.10;2.03;;;;;;;5.07;71.11;101017.47;5045692;28;20495;-72
2021/05/03 00:43:39;;;;;;;2.70;2.00;;;;;;;5.08;68.36;101011.31;5041026;28;20497;-72
2021/05/03 00:46:05;;;;;;;3.00;2.10;;;;;;;5.03;67.40;101009.00;5034912;28;20446;-72
2021/05/03 00:48:30;;;;;;;3.35;2.10;;;;;;;4.96;69.22;101012.13;5036752;28;20124;-72
2021/05/03 00:50:56;;;;;;;3.35;2.10;;;;;;;4.86;70.25;101010.13;5044322;28;20025;-72
2021/05/03 00:53:21;;;;;;;3.35;2.00;;;;;;;4.83;67.48;101012.09;5042838;28;20033;-72
2021/05/03 00:55:47;;;;;;;2.63;2.00;;;;;;;4.77;69.92;101009.91;5041821;28;20025;-72
2021/05/03 00:58:14;;;;;;;4.32;2.28;;;;;;;4.67;70.31;101017.53;5041508;28;20037;-73
2021/05/03 01:00:40;;;;;;;2.83;2.10;;;;;;;4.61;69.12;101015.31;5043474;28;20519;-73
2021/05/03 01:03:06;;;;;;;3.28;2.45;;;;;;;4.53;70.20;101017.59;5034957;28;20033;-73
2021/05/03 01:05:33;;;;;;;3.00;2.03;;;;;;;4.44;70.30;101014.66;5050223;28;20017;-73
2021/05/03 01:07:59;;;;;;;2.50;1.80;;;;;;;4.39;70.35;101023.75;5035590;28;20025;-73
2021/05/03 01:10:26;;;;;;;2.58;1.90;;;;;;;4.39;69.41;101021.13;5032630;28;20044;-73
2021/05/03 01:12:54;;;;;;;4.05;2.05;;;;;;;4.34;71.48;101024.06;5035208;28;20030;-73
2021/05/03 01:15:24;;;;;;;2.60;1.90;;;;;;;4.34;72.39;101023.19;5032076;28;20029;-73
2021/05/03 01:17:55;;;;;;;2.88;1.70;;;;;;;4.39;72.84;101024.59;5034045;28;20116;-73
2021/05/03 01:20:21;;;;;;;3.20;1.85;;;;;;;4.53;71.97;101035.91;5044450;28;20040;-73
2021/05/03 01:22:46;;;;;;;3.17;2.10;;;;;;;4.68;69.74;101033.16;5041200;28;20071;-72
2021/05/03 01:25:12;;;;;;;3.25;1.80;;;;;;;4.82;69.00;101032.25;5038521;28;20033;-72
2021/05/03 01:27:37;;;;;;;3.85;2.00;;;;;;;4.85;71.14;101031.19;5046991;28;20033;-73
2021/05/03 01:30:07;;;;;;;3.70;2.17;;;;;;;4.76;71.14;101030.00;5036093;28;20658;-73
2021/05/03 01:32:33;;;;;;;3.88;2.10;;;;;;;4.65;68.65;101037.75;5049215;28;20390;-73
2021/05/03 01:34:58;;;;;;;3.80;2.25;;;;;;;4.49;69.75;101031.84;5040428;28;20033;-73
2021/05/03 01:37:24;;;;;;;3.10;1.98;;;;;;;4.39;71.27;101027.22;5043330;28;20445;-73
2021/05/03 01:39:49;;;;;;;3.80;2.30;;;;;;;4.32;72.05;101046.88;5042855;28;20032;-73
2021/05/03 01:42:15;;;;;;;3.50;2.10;;;;;;;4.30;71.35;101038.28;5042047;28;20498;-73
2021/05/03 01:44:42;;;;;;;3.65;2.28;;;;;;;4.23;71.28;101034.38;5043758;28;20124;-72
2021/05/03 01:47:07;;;;;;;2.85;2.10;;;;;;;4.17;71.23;101037.38;5040432;28;20037;-73
2021/05/03 01:49:33;;;;;;;3.65;2.40;;;;;;;4.09;72.67;101031.78;5037258;28;20036;-73
2021/05/03 01:52:00;;;;;;;3.70;2.40;;;;;;;4.03;72.78;101035.66;5040475;28;20434;-73
2021/05/03 01:54:25;;;;;;;4.18;2.20;;;;;;;3.97;73.46;101034.25;5033735;28;20045;-73
2021/05/03 01:56:51;;;;;;;3.40;2.10;;;;;;;4.04;74.30;101039.94;5032724;28;20099;-73
2021/05/03 01:59:16;;;;;;;2.83;1.92;;;;;;;4.07;73.86;101038.91;5037612;28;20056;-73
2021/05/03 02:01:42;;;;;;;2.50;2.03;;;;;;;4.13;73.15;101031.50;5039371;28;20040;-72
2021/05/03 02:04:08;;;;;;;3.05;2.03;;;;;;;4.21;71.69;101028.38;5040313;28;20036;-73
2021/05/03 02:06:36;;;;;;;3.05;1.90;;;;;;;4.24;69.58;101025.56;5037522;28;20491;-73
2021/05/03 02:09:09;;;;;;;3.55;2.10;;;;;;;4.18;70.74;101028.59;5034440;28;20159;-73
2021/05/03 02:11:35;;;;;;;3.03;1.85;;;;;;;4.15;69.92;101037.47;5033294;28;20026;-73
2021/05/03 02:14:01;;;;;;;3.55;2.10;;;;;;;4.14;73.17;101035.78;5028903;28;20034;-73
2021/05/03 02:16:26;;;;;;;4.28;2.00;;;;;;;4.17;71.99;101032.13;5031872;28;20410;-73
2021/05/03 02:18:51;;;;;;;2.75;1.75;;;;;;;4.15;73.28;101034.88;5037473;28;20040;-73
2021/05/03 02:21:17;;;;;;;4.38;2.53;;;;;;;4.15;71.99;101037.47;5043405;28;20046;-73
2021/05/03 02:23:42;;;;;;;3.00;1.90;;;;;;;4.18;72.03;101023.34;5051799;28;20040;-73
2021/05/03 02:26:07;;;;;;;3.15;2.10;;;;;;;4.19;71.31;101025.84;5038777;28;20393;-73
2021/05/03 02:28:33;;;;;;;4.28;1.88;;;;;;;4.15;71.09;101037.47;5040950;28;20126;-73
2021/05/03 02:30:58;;;;;;;3.55;2.45;;;;;;;4.08;72.60;101033.56;5037976;28;20133;-73
2021/05/03 02:33:23;;;;;;;3.38;2.15;;;;;;;4.03;74.71;101035.66;5052386;28;20041;-73
2021/05/03 02:35:50;;;;;;;5.13;2.20;;;;;;;4.07;73.69;101031.03;5044470;28;20159;-73
2021/05/03 02:38:15;;;;;;;2.50;2.05;;;;;;;4.23;70.92;101036.97;5034636;28;20371;-72
2021/05/03 02:40:40;;;;;;;2.90;1.70;;;;;;;4.26;70.08;101028.94;5049892;28;20074;-72
2021/05/03 02:43:06;;;;;;;3.20;1.75;;;;;;;4.28;70.96;101029.66;5046871;28;20033;-72
2021/05/03 02:45:32;;;;;;;2.92;1.92;;;;;;;4.34;71.54;101029.28;5049330;28;20074;-72
2021/05/03 02:47:58;;;;;;;4.18;2.42;;;;;;;4.38;72.54;101035.97;5037847;28;20053;-72
2021/05/03 02:50:24;;;;;;;3.17;2.28;;;;;;;4.37;71.87;101036.94;5049871;28;20566;-72
2021/05/03 02:52:51;;;;;;;3.40;2.22;;;;;;;4.31;69.69;101039.94;5050140;28;20120;-72
2021/05/03 02:55:17;;;;;;;4.20;2.17;;;;;;;4.18;70.41;101042.50;5039293;28;20109;-72
2021/05/03 02:57:44;;;;;;;4.93;2.60;;;;;;;4.08;71.33;101048.44;5048125;28;20091;-72
2021/05/03 03:00:13;;;;;;;3.88;2.45;;;;;;;4.00;74.03;101049.75;5043505;28;20042;-72
2021/05/03 03:02:38;;;;;;;3.58;2.20;;;;;;;3.95;74.42;101050.97;5047911;28;20425;-72
2021/05/03 03:05:04;;;;;;;3.13;2.13;;;;;;;3.92;74.62;101052.00;5048270;28;20046;-72
2021/05/03 03:07:30;;;;;;;4.20;2.60;;;;;;;3.93;72.95;101056.31;5044648;28;20025;-72
2021/05/03 03:09:55;;;;;;;3.47;2.38;;;;;;;3.99;73.72;101066.38;5037541;28;20025;-73
2021/05/03 03:12:21;;;;;;;3.72;2.05;;;;;;;4.02;75.16;101065.34;5042386;28;20123;-72
2021/05/03 03:14:46;;;;;;;3.83;2.28;;;;;;;4.06;73.12;101059.00;5032803;28;20096;-72
2021/05/03 03:17:11;;;;;;;3.90;2.20;;;;;;;4.18;72.21;101065.22;5040992;28;20137;-72
2021/05/03 03:19:41;;;;;;;4.00;2.20;;;;;;;4.20;75.53;101069.44;5045880;28;20036;-72
2021/05/03 03:22:07;;;;;;;3.45;2.10;;;;;;;4.29;72.66;101065.41;5041539;28;20231;-73
2021/05/03 03:24:33;;;;;;;3.33;2.15;;;;;;;4.32;72.99;101057.34;5049434;28;20039;-72
2021/05/03 03:26:59;;;;;;;2.85;2.03;;;;;;;4.32;72.46;101067.81;5043323;28;20037;-72
2021/05/03 03:29:24;;;;;;;3.75;2.10;;;;;;;4.40;73.12;101064.69;5037616;28;20048;-72
2021/05/03 03:31:49;;;;;;;3.53;2.15;;;;;;;4.50;70.00;101064.94;5045043;28;20036;-72
2021/05/03 03:34:15;;;;;;;3.38;1.98;;;;;;;4.53;71.56;101073.44;5038599;28;20041;-73
2021/05/03 03:36:40;;;;;;;2.50;2.10;;;;;;;4.54;71.04;101076.91;5041503;28;20394;-72
2021/05/03 03:39:06;;;;;;;3.60;2.10;;;;;;;4.56;73.02;101072.41;5036251;28;20087;-72
2021/05/03 03:41:33;;;;;;;2.90;2.10;;;;;;;4.57;69.59;101066.22;5046724;28;20036;-72
2021/05/03 03:43:59;;;;;;;3.25;2.28;;;;;;;4.53;72.64;101070.84;5044171;28;20029;-72
2021/05/03 03:46:25;;;;;;;3.80;2.20;;;;;;;4.57;70.82;101076.69;5035396;28;20136;-72
2021/05/03 03:48:50;;;;;;;3.65;2.30;;;;;;;4.56;71.59;101083.72;5040919;28;20497;-72
2021/05/03 03:51:16;;;;;;;3.03;2.20;;;;;;;4.56;72.41;101086.34;5038250;28;20055;-72
2021/05/03 03:53:41;;;;;;;2.63;2.20;;;;;;;4.65;72.24;101088.38;5046883;28;20155;-72
2021/05/03 03:56:07;;;;;;;3.42;2.17;;;;;;;4.65;69.33;101084.91;5040956;28;20456;-73
2021/05/03 03:58:32;;;;;;;3.45;2.13;;;;;;;4.63;68.19;101089.41;5042302;28;20104;-72
2021/05/03 04:00:58;;;;;;;4.20;2.03;;;;;;;4.67;68.26;101091.72;5043288;28;20601;-72
2021/05/03 04:03:25;;;;;;;2.80;1.80;;;;;;;4.74;69.81;101089.53;5039962;28;20128;-72
2021/05/03 04:09:08;;;;;;;2.60;1.70;;;;;;;4.86;66.92;101087.88;5045369;28;20033;-73
2021/05/03 04:21:40;;;;;;;4.53;2.45;;;;;;;4.89;70.33;101101.63;5037017;28;20044;-72
2021/05/03 04:26:32;;;;;;;4.15;2.47;;;;;;;5.09;68.77;101104.72;5041834;28;20029;-72
2021/05/03 04:28:57;;;;;;;3.28;2.50;;;;;;;5.05;69.47;101108.47;5036641;28;20124;-72
2021/05/03 04:31:23;;;;;;;4.07;2.13;;;;;;;5.04;69.00;101120.75;5050958;28;20086;-72
2021/05/03 04:33:49;;;;;;;3.97;1.95;;;;;;;5.00;67.60;101118.44;5036845;28;20037;-72
2021/05/03 04:36:14;;;;;;;2.78;2.20;;;;;;;5.05;71.79;101121.59;5044254;28;20025;-72
2021/05/03 04:38:40;;;;;;;4.35;2.17;;;;;;;5.01;66.97;101115.72;5042808;28;20223;-72
2021/05/03 04:41:06;;;;;;;3.78;2.20;;;;;;;5.08;69.45;101122.22;5045887;28;20056;-72
2021/05/03 04:43:32;;;;;;;3.67;2.33;;;;;;;5.21;69.35;101124.88;5045217;28;20116;-72
2021/05/03 04:45:57;;;;;;;3.63;2.35;;;;;;;5.39;67.56;101122.81;5035694;28;20126;-72
2021/05/03 04:48:23;;;;;;;3.88;2.40;;;;;;;5.43;65.24;101124.25;5044296;28;20032;-72
2021/05/03 04:50:48;;;;;;;4.60;2.70;;;;;;;5.49;64.99;101123.03;5047250;28;20520;-73
2021/05/03 04:53:14;;;;;;;3.47;2.30;;;;;;;5.47;65.22;101130.16;5043169;28;20041;-72
2021/05/03 04:55:39;;;;;;;3.03;2.10;;;;;;;5.50;65.24;101127.31;5049744;28;20028;-72
2021/05/03 04:58:04;;;;;;;3.13;1.80;;;;;;;5.51;69.29;101129.00;5041750;28;20045;-72
2021/05/03 05:00:30;;;;;;;2.88;2.25;;;;;;;5.59;68.65;101126.69;5041495;28;20033;-72
2021/05/03 05:02:55;;;;;;;3.15;1.88;;;;;;;5.69;67.04;101122.47;5036550;28;20498;-72
2021/05/03 05:05:21;;;;;;;3.72;2.20;;;;;;;5.74;65.48;101128.28;5037136;28;20037;-72
2021/05/03 05:07:46;;;;;;;3.60;2.20;;;;;;;5.77;64.74;101126.34;5044438;28;20382;-72
2021/05/03 05:10:12;;;;;;;2.63;2.25;;;;;;;5.84;64.11;101125.00;5040561;28;20037;-73
2021/05/03 05:12:38;;;;;;;4.10;2.13;;;;;;;5.90;64.70;101128.03;5037809;28;20041;-72
2021/05/03 05:15:05;;;;;;;2.60;2.03;;;;;;;5.93;64.46;101129.59;5032168;28;20037;-72
2021/05/03 05:17:31;;;;;;;3.72;2.45;;;;;;;5.97;67.02;101128.47;5037696;28;20029;-73
2021/05/03 05:19:57;;;;;;;3.92;2.00;;;;;;;6.10;64.07;101125.81;5034720;28;20045;-72
2021/05/03 05:22:23;;;;;;;5.38;2.40;;;;;;;6.22;65.68;101132.88;5039345;28;20033;-73
2021/05/03 05:24:49;;;;;;;4.57;2.22;;;;;;;6.34;64.82;101131.97;5036738;28;20098;-72
2021/05/03 05:27:14;;;;;;;3.67;2.00;;;;;;;6.36;65.62;101121.34;5049083;28;20048;-73
2021/05/03 05:29:39;;;;;;;3.75;1.88;;;;;;;6.54;64.33;101138.44;5037014;28;20045;-72
2021/05/03 05:32:05;;;;;;;2.85;2.00;;;;;;;6.59;65.06;101136.31;5031874;28;20033;-73
2021/05/03 05:34:30;;;;;;;2.75;1.55;;;;;;;6.91;65.04;101140.16;5043619;28;20571;-72
2021/05/03 05:36:56;;;;;;;3.22;2.08;;;;;;;7.31;63.66;101140.66;5034492;28;20363;-72
2021/05/03 05:39:21;;;;;;;3.85;2.70;;;;;;;7.75;62.01;101151.41;5046164;28;20032;-72
2021/05/03 05:41:47;;;;;;;4.72;3.15;;;;;;;7.96;61.75;101149.75;5037959;28;20082;-72
2021/05/03 05:44:12;;;;;;;6.10;3.40;;;;;;;8.04;60.63;101154.41;5032976;28;20125;-73
2021/05/03 05:46:39;;;;;;;4.72;3.10;;;;;;;8.43;60.79;101145.16;5031919;28;20049;-72
2021/05/03 05:49:06;;;;;;;4.55;3.50;;;;;;;8.71;61.04;101156.97;5039740;28;20033;-72
2021/05/03 05:51:31;;;;;;;5.70;3.90;;;;;;;9.05;59.57;101159.47;5037484;28;20596;-72
2021/05/03 05:53:57;;;;;;;5.32;3.70;;;;;;;9.14;59.39;101161.38;5049578;28;20036;-73
2021/05/03 05:56:22;;;;;;;5.95;4.10;;;;;;;9.03;60.06;101152.66;5044192;28;20486;-72
2021/05/03 05:58:48;;;;;;;7.03;4.22;;;;;;;8.85;60.51;101153.22;5052623;28;20040;-73
2021/05/03 06:01:13;;;;;;;6.40;4.28;;;;;;;8.69;61.19;101161.53;5046594;28;20477;-72
2021/05/03 06:03:40;;;;;;;7.30;4.60;;;;;;;8.54;61.48;101148.75;5047488;28;20021;-72
2021/05/03 06:06:06;;;;;;;7.78;5.32;;;;;;;8.53;62.29;101155.81;5048273;28;20033;-72
2021/05/03 06:08:31;;;;;;;6.65;5.00;;;;;;;9.11;61.76;101152.88;5034804;28;20056;-72
2021/05/03 06:10:57;;;;;;;8.80;6.00;;;;;;;9.78;60.59;101157.75;5045019;28;20021;-72
2021/05/03 06:13:22;;;;;;;7.60;5.57;;;;;;;10.40;59.30;101148.00;5036701;28;20036;-71
2021/05/03 06:15:48;;;;;;;8.38;6.40;;;;;;;10.72;58.63;101149.59;5034936;28;20631;-71
2021/05/03 06:18:13;;;;;;;8.70;5.93;;;;;;;11.26;58.66;101155.34;5050803;28;20121;-72
2021/05/03 06:20:39;;;;;;;10.35;6.97;;;;;;;11.67;57.38;101162.09;5036277;28;20082;-72
2021/05/03 06:23:11;;;;;;;10.80;7.85;;;;;;;12.04;55.77;101161.31;5042126;28;20045;-71
2021/05/03 06:25:36;;;;;;;8.38;6.95;;;;;;;12.40;55.82;101165.91;5034404;28;20040;-70
2021/05/03 06:28:02;;;;;;;9.73;6.90;;;;;;;12.67;54.83;101165.84;5047881;28;20029;-71
2021/05/03 06:30:28;;;;;;;10.57;7.75;;;;;;;12.75;52.97;101171.25;5052100;28;20364;-70
2021/05/03 06:32:54;;;;;;;8.75;7.03;;;;;;;12.84;54.52;101166.84;5047858;28;20075;-70
2021/05/03 06:35:20;;;;;;;8.70;6.55;;;;;;;12.80;55.82;101162.84;5047032;28;20393;-70
2021/05/03 06:37:46;;;;;;;9.82;7.00;;;;;;;12.30;55.23;101168.59;5047540;28;20051;-70
2021/05/03 06:40:12;;;;;;;8.52;7.28;;;;;;;12.34;53.92;101169.94;5051554;28;20440;-70
2021/05/03 06:42:37;;;;;;;8.68;6.63;;;;;;;12.34;53.52;101169.94;5045987;28;20036;-70
2021/05/03 06:45:03;;;;;;;7.65;6.10;;;;;;;12.03;55.91;101164.09;5041584;28;20029;-70
2021/05/03 06:47:29;;;;;;;10.43;6.20;;;;;;;11.89;54.31;101163.59;5044348;28;20029;-70
2021/05/03 06:49:54;;;;;;;8.07;6.30;;;;;;;11.89;53.65;101158.31;5050628;28;20025;-70
2021/05/03 06:52:20;;;;;;;7.70;5.95;;;;;;;11.85;53.17;101170.13;5050607;28;20053;-71
2021/05/03 06:54:45;;;;;;;7.32;5.50;;;;;;;12.16;51.53;101174.38;5052691;28;20033;-70
2021/05/03 06:57:11;;;;;;;6.05;5.05;;;;;;;12.83;49.38;101167.03;5052244;28;20033;-70
2021/05/03 06:59:36;;;;;;;8.43;5.40;;;;;;;13.09;48.60;101178.56;5051999;28;20029;-70
2021/05/03 07:02:01;;;;;;;7.53;5.07;;;;;;;13.19;46.34;101181.13;5048357;28;20038;-70
2021/05/03 07:04:27;;;;;;;5.80;4.15;;;;;;;13.34;47.10;101181.44;5051784;28;20044;-70
2021/05/03 07:06:52;;;;;;;6.07;4.40;;;;;;;13.83;47.99;101178.31;5046634;28;20033;-70
2021/05/03 07:09:18;;;;;;;4.75;3.63;;;;;;;13.86;47.30;101178.81;5052328;28;20057;-71
2021/05/03 07:11:45;;;;;;;7.32;4.60;;;;;;;14.02;46.83;101183.41;5042153;28;20405;-70
2021/05/03 07:14:10;;;;;;;7.97;4.45;;;;;;;13.51;44.72;101185.88;5035733;28;20494;-71
2021/05/03 07:16:36;;;;;;;9.13;5.05;;;;;;;14.09;45.69;101181.78;5038987;28;20040;-70
2021/05/03 07:19:02;;;;;;;6.60;4.40;;;;;;;14.33;45.83;101185.53;5046021;28;20433;-70
2021/05/03 07:21:28;;;;;;;7.07;4.65;;;;;;;14.08;46.15;101182.75;5051163;28;20032;-70
2021/05/03 07:23:54;;;;;;;6.38;4.68;;;;;;;15.09;42.93;101176.59;5047166;28;20121;-70
2021/05/03 07:26:19;;;;;;;7.57;5.38;;;;;;;15.96;42.00;101176.88;5050205;28;20119;-70
2021/05/03 07:28:44;;;;;;;7.20;4.57;;;;;;;16.17;42.78;101184.31;5047644;28;20036;-70
2021/05/03 07:31:10;;;;;;;6.22;4.20;;;;;;;17.05;40.69;101190.38;5049741;28;20037;-70
2021/05/03 07:33:35;;;;;;;5.97;4.10;;;;;;;17.32;38.43;101194.34;5050044;28;20037;-70
2021/05/03 07:36:00;;;;;;;5.40;4.35;;;;;;;17.27;38.57;101186.03;5042500;28;20037;-69
2021/05/03 07:38:26;;;;;;;6.07;4.18;;;;;;;16.98;37.49;101188.41;5050760;28;20402;-71
2021/05/03 07:40:52;;;;;;;4.95;4.40;;;;;;;17.45;38.85;101183.88;5047412;28;20040;-68
2021/05/03 07:43:17;;;;;;;5.70;3.75;;;;;;;17.81;38.84;101177.88;5049434;28;20083;-68
2021/05/03 07:45:43;;;;;;;7.40;4.68;;;;;;;18.33;36.81;101184.97;5042648;28;20044;-70
2021/05/03 07:48:08;;;;;;;5.00;3.38;;;;;;;18.62;35.09;101185.94;5045706;28;20033;-69
2021/05/03 07:50:35;;;;;;;9.07;5.10;;;;;;;18.44;37.40;101179.13;5048547;28;20033;-68
2021/05/03 07:53:01;;;;;;;6.90;4.82;;;;;;;18.66;35.71;101180.03;5050522;28;20029;-68
2021/05/03 07:55:26;;;;;;;5.85;4.32;;;;;;;18.67;34.13;101180.84;5044265;28;20040;-68
2021/05/03 07:57:52;;;;;;;7.05;4.70;;;;;;;18.40;34.72;101168.97;5049257;28;20566;-68
2021/05/03 08:00:18;;;;;;;7.45;4.25;;;;;;;18.72;33.47;101161.53;5043936;28;20029;-68
2021/05/03 08:02:44;;;;;;;5.22;4.10;;;;;;;18.93;33.16;101166.94;5049131;28;20041;-68
2021/05/03 08:05:10;;;;;;;5.20;4.22;;;;;;;19.22;33.92;101170.50;5044456;28;20044;-68
2021/05/03 08:07:35;;;;;;;6.13;4.80;;;;;;;18.99;33.67;101170.69;5050410;28;20036;-68
2021/05/03 08:10:01;;;;;;;5.10;3.97;;;;;;;18.90;34.84;101169.97;5045266;28;20025;-68
2021/05/03 08:12:28;;;;;;;4.78;3.95;;;;;;;19.21;33.27;101172.34;5047163;28;20034;-68
2021/05/03 08:14:53;;;;;;;6.75;5.05;;;;;;;18.39;33.91;101170.00;5031696;28;20159;-68
2021/05/03 08:17:19;;;;;;;6.10;4.07;;;;;;;18.61;33.19;101170.88;5043032;28;20503;-68
2021/05/03 08:19:46;;;;;;;5.82;3.80;;;;;;;19.36;33.17;101168.75;5045867;28;20448;-68
2021/05/03 08:22:12;;;;;;;5.78;4.70;;;;;;;18.15;32.38;101168.47;5045620;28;20048;-69
2021/05/03 08:24:38;;;;;;;5.85;3.58;;;;;;;18.34;34.97;101162.53;5049862;28;20575;-68
2021/05/03 08:27:05;;;;;;;6.43;3.63;;;;;;;18.96;33.92;101155.00;5046942;28;20038;-68
2021/05/03 08:29:31;;;;;;;5.50;4.57;;;;;;;18.84;32.97;101157.34;5040856;28;20448;-68
2021/05/03 08:31:57;;;;;;;4.90;3.90;;;;;;;19.56;31.91;101172.41;5048238;28;20033;-68
2021/05/03 08:34:23;;;;;;;5.60;4.55;;;;;;;20.39;29.86;101160.94;5050681;28;20037;-68
2021/05/03 08:36:50;;;;;;;7.55;4.40;;;;;;;20.22;29.84;101172.00;5041125;28;20025;-67
2021/05/03 08:39:15;;;;;;;5.07;3.40;;;;;;;20.11;28.28;101170.72;5053432;28;20037;-68
2021/05/03 08:41:40;;;;;;;7.05;5.03;;;;;;;20.67;27.98;101175.09;5054663;28;20029;-68
2021/05/03 08:44:07;;;;;;;4.93;3.78;;;;;;;20.49;27.51;101172.13;5044499;28;20036;-70
2021/05/03 08:46:38;;;;;;;5.40;4.07;;;;;;;20.52;29.08;101166.34;5050300;28;20482;-68
2021/05/03 08:49:17;;;;;;;4.32;3.00;;;;;;;20.49;29.65;101159.50;5047470;28;20037;-68
2021/05/03 08:51:51;;;;;;;4.82;3.38;;;;;;;21.75;26.58;101166.06;5050851;28;20030;-68
2021/05/03 08:56:53;;;;;;;4.55;3.30;;;;;;;22.24;26.24;101156.66;5050453;28;20055;-67
2021/05/03 08:59:18;;;;;;;4.28;3.45;;;;;;;21.63;27.86;101150.56;5041679;28;20067;-67
2021/05/03 09:01:46;;;;;;;5.55;3.15;;;;;;;21.89;27.64;101156.13;5049814;28;20132;-67
2021/05/03 09:04:12;;;;;;;5.38;3.83;;;;;;;22.35;26.14;101147.06;5041701;28;20041;-68
2021/05/03 09:06:38;;;;;;;4.03;2.80;;;;;;;22.11;25.83;101138.63;5041019;28;20524;-68
2021/05/03 09:09:10;;;;;;;3.80;2.55;;;;;;;22.78;25.88;101147.22;5047704;28;20108;-68
2021/05/03 09:11:36;;;;;;;4.10;3.03;;;;;;;23.04;24.78;101148.94;5047499;28;20088;-68
2021/05/03 09:14:12;;;;;;;6.38;3.58;;;;;;;21.75;25.17;101139.16;5041806;28;20108;-68
2021/05/03 09:16:47;;;;;;;3.60;2.88;;;;;;;21.34;24.39;101143.75;5032939;28;20440;-68
2021/05/03 09:19:13;;;;;;;4.70;2.95;;;;;;;20.60;26.66;101141.19;5050822;28;20040;-68
2021/05/03 09:21:39;;;;;;;4.72;3.35;;;;;;;20.02;28.23;101142.41;5049532;28;20060;-68
2021/05/03 09:24:19;;;;;;;5.20;3.38;;;;;;;19.87;26.27;101134.44;5050211;28;20079;-68
2021/05/03 09:27:05;;;;;;;3.75;2.50;;;;;;;19.92;26.80;101125.81;5041796;28;20040;-68
2021/05/03 09:29:39;;;;;;;4.85;3.50;;;;;;;19.78;26.87;101118.72;5036453;28;20034;-68
2021/05/03 09:32:19;;;;;;;4.35;3.00;;;;;;;19.10;28.98;101119.25;5053015;28;20843;-69
2021/05/03 09:34:52;;;;;;;4.32;3.05;;;;;;;18.51;31.03;101116.78;5049874;28;20142;-69
2021/05/03 09:37:38;;;;;;;5.05;3.15;;;;;;;17.70;31.91;101127.47;5045015;28;20501;-69
2021/05/03 09:40:18;;;;;;;4.47;3.30;;;;;;;16.73;30.50;101120.97;5042902;28;20124;-69
2021/05/03 09:42:54;;;;;;;5.10;3.25;;;;;;;16.78;30.42;101123.09;5041923;28;20060;-68
2021/05/03 09:45:33;;;;;;;6.35;3.10;;;;;;;16.23;33.50;101118.72;5043875;28;20131;-69
2021/05/03 09:48:00;;;;;;;5.00;2.92;;;;;;;15.88;32.52;101121.72;5048424;28;20032;-68
2021/05/03 09:50:29;;;;;;;5.32;4.03;;;;;;;15.21;34.41;101118.50;5049460;28;20147;-69
2021/05/03 09:53:10;;;;;;;5.10;3.50;;;;;;;15.23;33.68;101112.00;5041969;28;20173;-69
2021/05/03 09:55:35;;;;;;;5.55;3.55;;;;;;;14.77;34.89;101103.66;5032952;28;20189;-69
2021/05/03 09:58:15;;;;;;;4.25;3.42;;;;;;;14.44;35.90;101100.09;5042698;28;20044;-69
2021/05/03 10:00:52;;;;;;;5.72;3.55;;;;;;;14.44;35.99;101100.94;5044651;28;20041;-69
2021/05/03 10:03:39;;;;;;;6.35;3.65;;;;;;;14.75;37.43;101092.34;5043553;28;20033;-69
2021/05/03 10:06:07;;;;;;;4.47;3.03;;;;;;;15.14;35.22;101082.88;5048286;28;20435;-69
2021/05/03 10:08:32;;;;;;;3.72;2.90;;;;;;;15.76;35.01;101083.09;5046761;28;20038;-69
2021/05/03 10:11:03;;;;;;;5.13;2.90;;;;;;;15.98;34.53;101083.34;5048586;28;20035;-69
2021/05/03 10:13:29;;;;;;;4.78;3.10;;;;;;;16.32;33.44;101078.47;5041430;28;20425;-69
2021/05/03 10:15:56;;;;;;;3.88;3.08;;;;;;;15.90;33.00;101086.88;5040988;28;20041;-69
2021/05/03 10:18:23;;;;;;;4.43;2.70;;;;;;;15.14;35.17;101080.22;5050331;28;20071;-69
2021/05/03 10:20:49;;;;;;;4.20;2.90;;;;;;;14.85;34.87;101081.56;5047492;28;20210;-69
2021/05/03 10:23:18;;;;;;;3.78;2.38;;;;;;;14.61;36.05;101077.88;5044393;28;20040;-69
2021/05/03 10:25:43;;;;;;;5.40;3.13;;;;;;;14.76;34.20;101080.72;5046476;28;20107;-68
2021/05/03 10:28:09;;;;;;;5.43;3.65;;;;;;;14.26;37.56;101084.25;5048032;28;20072;-69
2021/05/03 10:30:47;;;;;;;6.00;3.72;;;;;;;13.59;43.13;101089.47;5037525;28;20463;-69
2021/05/03 10:33:13;;;;;;;6.03;4.03;;;;;;;13.35;41.46;101082.19;5043677;28;20037;-68
2021/05/03 10:35:47;;;;;;;3.42;2.70;;;;;;;13.44;40.68;101077.75;5039246;28;20044;-68
2021/05/03 10:38:28;;;;;;;4.07;2.70;;;;;;;13.68;42.75;101074.38;5044065;28;20049;-69
2021/05/03 10:40:54;;;;;;;5.47;3.57;;;;;;;13.86;41.95;101075.13;5052093;28;20466;-68
2021/05/03 10:43:25;;;;;;;6.18;4.20;;;;;;;14.03;41.60;101060.06;5046275;28;20827;-68
2021/05/03 10:48:48;;;;;;;6.80;4.20;;;;;;;13.88;38.09;101065.19;5042925;28;20371;-69
2021/05/03 10:51:44;;;;;;;6.65;3.47;;;;;;;13.65;40.81;101058.75;5051846;28;20041;-68
2021/05/03 10:54:25;;;;;;;4.53;3.35;;;;;;;13.56;36.86;101053.41;5041071;28;20037;-70
2021/05/03 10:56:55;;;;;;;5.22;3.33;;;;;;;13.43;39.66;101046.88;5052732;28;20037;-68
2021/05/03 10:59:20;;;;;;;5.75;3.97;;;;;;;13.64;38.65;101049.13;5041268;28;20025;-68
2021/05/03 11:01:52;;;;;;;4.60;3.35;;;;;;;13.57;40.07;101047.09;5039371;28;20525;-69
2021/05/03 11:04:18;;;;;;;4.30;2.90;;;;;;;13.73;37.63;101045.50;5037655;28;20030;-68
2021/05/03 11:06:43;;;;;;;5.32;3.40;;;;;;;13.94;37.74;101031.78;5045765;28;20048;-68
2021/05/03 11:09:31;;;;;;;3.40;2.50;;;;;;;14.18;39.32;101031.03;5046157;28;20045;-69
2021/05/03 11:12:05;;;;;;;4.03;3.22;;;;;;;14.49;37.05;101019.75;5051122;28;20489;-69
2021/05/03 11:14:34;;;;;;;6.05;3.75;;;;;;;14.65;36.41;101023.28;5025850;28;20040;-68
2021/05/03 11:17:03;;;;;;;4.70;3.15;;;;;;;14.54;34.64;101025.44;5041547;28;20476;-69
2021/05/03 11:22:03;;;;;;;3.83;3.05;;;;;;;14.58;35.41;101019.63;5037671;28;20043;-68
2021/05/03 11:24:39;;;;;;;4.38;2.55;;;;;;;14.76;35.64;101016.00;5044340;28;20041;-68
2021/05/03 11:27:29;;;;;;;4.85;2.80;;;;;;;14.82;36.08;101012.66;5045200;28;20033;-69
2021/05/03 11:32:31;;;;;;;2.95;2.25;;;;;;;14.77;34.56;101004.34;5050170;28;20448;-68
2021/05/03 11:37:32;;;;;;;7.88;3.00;;;;;;;14.80;34.42;100999.53;5042407;28;20029;-69
2021/05/03 11:45:30;;;;;;;5.30;3.40;;;;;;;15.97;33.54;100980.31;5050005;28;20057;-69
2021/05/03 11:47:57;;;;;;;4.43;3.20;;;;;;;15.71;33.19;100982.28;5037749;28;20053;-68
2021/05/03 11:50:25;;;;;;;4.90;3.30;;;;;;;15.75;34.63;100982.75;5040265;28;20128;-68
2021/05/03 11:52:51;;;;;;;4.70;2.97;;;;;;;15.92;32.30;100978.16;5039232;28;20037;-68
2021/05/03 11:55:22;;;;;;;4.50;2.50;;;;;;;15.75;34.45;100980.09;5048191;28;20033;-68
2021/05/03 11:57:48;;;;;;;;;;;;;;;15.79;34.34;100978.75;5047232;28;20090;-69
2021/05/03 12:00:17;;;;;;;5.25;2.60;;;;;;;15.86;31.74;100968.22;5049613;28;19970;-68
2021/05/03 12:02:44;;;;;;;3.53;2.10;;;;;;;15.53;34.37;100962.19;5046139;28;20425;-68